sensor_id;sensor_type;location;lat;lon;timestamp;P1;durP1;ratioP1;P2;durP2;ratioP2
59846;SDS011;45728;48.788;2.302;2024-03-08T00:02:35;31.98;;;25.55;;
59846;SDS011;45728;48.788;2.302;2024-03-08T00:05:03;33.65;;;25.45;;
59846;SDS011;45728;48.788;2.302;2024-03-08T00:07:37;32.00;;;25.00;;
59846;SDS011;45728;48.788;2.302;2024-03-08T00:10:04;35.53;;;25.80;;
59846;SDS011;45728;48.788;2.302;2024-03-08T00:12:40;36.60;;;27.70;;
59846;SDS011;45728;48.788;2.302;2024-03-08T00:15:10;33.55;;;26.42;;
59846;SDS011;45728;48.788;2.302;2024-03-08T00:17:42;36.45;;;27.10;;
59846;SDS011;45728;48.788;2.302;2024-03-08T00:20:09;30.20;;;24.80;;
59846;SDS011;45728;48.788;2.302;2024-03-08T00:22:39;30.90;;;24.38;;
59846;SDS011;45728;48.788;2.302;2024-03-08T00:25:06;33.45;;;25.85;;
59846;SDS011;45728;48.788;2.302;2024-03-08T00:27:37;33.70;;;25.63;;
59846;SDS011;45728;48.788;2.302;2024-03-08T00:30:09;35.60;;;28.10;;
59846;SDS011;45728;48.788;2.302;2024-03-08T00:32:38;35.55;;;25.77;;
59846;SDS011;45728;48.788;2.302;2024-03-08T00:35:04;30.75;;;25.20;;
59846;SDS011;45728;48.788;2.302;2024-03-08T00:37:32;32.90;;;26.58;;
59846;SDS011;45728;48.788;2.302;2024-03-08T00:40:00;33.17;;;25.55;;
59846;SDS011;45728;48.788;2.302;2024-03-08T00:42:26;32.88;;;25.35;;
59846;SDS011;45728;48.788;2.302;2024-03-08T00:44:52;32.45;;;25.67;;
59846;SDS011;45728;48.788;2.302;2024-03-08T00:47:18;33.70;;;26.73;;
59846;SDS011;45728;48.788;2.302;2024-03-08T00:49:44;34.97;;;26.73;;
59846;SDS011;45728;48.788;2.302;2024-03-08T00:52:11;31.50;;;25.67;;
59846;SDS011;45728;48.788;2.302;2024-03-08T00:54:37;32.40;;;25.85;;
59846;SDS011;45728;48.788;2.302;2024-03-08T00:57:04;32.33;;;25.63;;
59846;SDS011;45728;48.788;2.302;2024-03-08T00:59:32;36.28;;;28.85;;
59846;SDS011;45728;48.788;2.302;2024-03-08T01:02:01;34.05;;;26.27;;
59846;SDS011;45728;48.788;2.302;2024-03-08T01:04:27;33.10;;;26.83;;
59846;SDS011;45728;48.788;2.302;2024-03-08T01:06:57;32.90;;;26.58;;
59846;SDS011;45728;48.788;2.302;2024-03-08T01:09:24;34.72;;;26.98;;
59846;SDS011;45728;48.788;2.302;2024-03-08T01:11:52;31.80;;;24.63;;
59846;SDS011;45728;48.788;2.302;2024-03-08T01:14:20;35.35;;;26.90;;
59846;SDS011;45728;48.788;2.302;2024-03-08T01:16:51;37.30;;;27.95;;
59846;SDS011;45728;48.788;2.302;2024-03-08T01:19:17;36.92;;;28.08;;
59846;SDS011;45728;48.788;2.302;2024-03-08T01:21:43;36.33;;;27.48;;
59846;SDS011;45728;48.788;2.302;2024-03-08T01:24:09;36.58;;;28.38;;
59846;SDS011;45728;48.788;2.302;2024-03-08T01:26:35;36.75;;;27.90;;
59846;SDS011;45728;48.788;2.302;2024-03-08T01:29:02;34.88;;;26.33;;
59846;SDS011;45728;48.788;2.302;2024-03-08T01:31:29;39.55;;;28.73;;
59846;SDS011;45728;48.788;2.302;2024-03-08T01:33:58;37.10;;;28.05;;
59846;SDS011;45728;48.788;2.302;2024-03-08T01:36:24;36.35;;;28.40;;
59846;SDS011;45728;48.788;2.302;2024-03-08T01:38:51;34.97;;;27.60;;
59846;SDS011;45728;48.788;2.302;2024-03-08T01:41:17;36.25;;;27.65;;
59846;SDS011;45728;48.788;2.302;2024-03-08T01:43:44;36.78;;;27.98;;
59846;SDS011;45728;48.788;2.302;2024-03-08T01:46:10;37.88;;;28.90;;
59846;SDS011;45728;48.788;2.302;2024-03-08T01:51:06;36.33;;;27.70;;
59846;SDS011;45728;48.788;2.302;2024-03-08T01:53:33;34.08;;;26.75;;
59846;SDS011;45728;48.788;2.302;2024-03-08T01:56:00;38.83;;;28.85;;
59846;SDS011;45728;48.788;2.302;2024-03-08T01:58:31;38.20;;;28.88;;
59846;SDS011;45728;48.788;2.302;2024-03-08T02:00:58;34.38;;;25.50;;
59846;SDS011;45728;48.788;2.302;2024-03-08T02:03:25;37.50;;;28.20;;
59846;SDS011;45728;48.788;2.302;2024-03-08T02:05:51;36.40;;;28.10;;
59846;SDS011;45728;48.788;2.302;2024-03-08T02:08:18;36.53;;;27.73;;
59846;SDS011;45728;48.788;2.302;2024-03-08T02:10:48;40.42;;;29.63;;
59846;SDS011;45728;48.788;2.302;2024-03-08T02:13:15;38.90;;;29.27;;
59846;SDS011;45728;48.788;2.302;2024-03-08T02:15:59;36.80;;;28.17;;
59846;SDS011;45728;48.788;2.302;2024-03-08T02:18:26;36.00;;;27.52;;
59846;SDS011;45728;48.788;2.302;2024-03-08T02:20:54;38.05;;;29.35;;
59846;SDS011;45728;48.788;2.302;2024-03-08T02:23:21;37.35;;;28.23;;
59846;SDS011;45728;48.788;2.302;2024-03-08T02:25:49;39.30;;;29.50;;
59846;SDS011;45728;48.788;2.302;2024-03-08T02:28:15;37.65;;;28.70;;
59846;SDS011;45728;48.788;2.302;2024-03-08T02:30:41;41.28;;;30.67;;
59846;SDS011;45728;48.788;2.302;2024-03-08T02:33:07;36.33;;;27.92;;
59846;SDS011;45728;48.788;2.302;2024-03-08T02:35:36;38.72;;;29.20;;
59846;SDS011;45728;48.788;2.302;2024-03-08T02:38:05;36.88;;;28.58;;
59846;SDS011;45728;48.788;2.302;2024-03-08T02:40:31;40.80;;;28.83;;
59846;SDS011;45728;48.788;2.302;2024-03-08T02:42:57;44.03;;;31.80;;
59846;SDS011;45728;48.788;2.302;2024-03-08T02:45:23;37.03;;;27.73;;
59846;SDS011;45728;48.788;2.302;2024-03-08T02:47:50;41.17;;;29.90;;
59846;SDS011;45728;48.788;2.302;2024-03-08T02:50:16;38.78;;;29.70;;
59846;SDS011;45728;48.788;2.302;2024-03-08T02:52:43;40.58;;;29.50;;
59846;SDS011;45728;48.788;2.302;2024-03-08T02:55:09;40.17;;;30.30;;
59846;SDS011;45728;48.788;2.302;2024-03-08T02:57:36;39.53;;;29.92;;
59846;SDS011;45728;48.788;2.302;2024-03-08T03:00:02;43.67;;;30.73;;
59846;SDS011;45728;48.788;2.302;2024-03-08T03:02:34;42.83;;;30.52;;
59846;SDS011;45728;48.788;2.302;2024-03-08T03:05:01;41.55;;;29.73;;
59846;SDS011;45728;48.788;2.302;2024-03-08T03:09:59;40.30;;;30.40;;
59846;SDS011;45728;48.788;2.302;2024-03-08T03:12:28;40.20;;;30.20;;
59846;SDS011;45728;48.788;2.302;2024-03-08T03:14:55;45.35;;;31.75;;
59846;SDS011;45728;48.788;2.302;2024-03-08T03:17:25;45.03;;;31.15;;
59846;SDS011;45728;48.788;2.302;2024-03-08T03:19:51;44.67;;;31.35;;
59846;SDS011;45728;48.788;2.302;2024-03-08T03:22:18;41.35;;;29.48;;
59846;SDS011;45728;48.788;2.302;2024-03-08T03:24:45;40.55;;;29.85;;
59846;SDS011;45728;48.788;2.302;2024-03-08T03:27:12;42.33;;;31.42;;
59846;SDS011;45728;48.788;2.302;2024-03-08T03:29:42;42.92;;;30.40;;
59846;SDS011;45728;48.788;2.302;2024-03-08T03:32:12;42.40;;;31.08;;
59846;SDS011;45728;48.788;2.302;2024-03-08T03:34:38;39.90;;;30.10;;
59846;SDS011;45728;48.788;2.302;2024-03-08T03:37:05;43.22;;;31.35;;
59846;SDS011;45728;48.788;2.302;2024-03-08T03:39:34;41.50;;;29.63;;
59846;SDS011;45728;48.788;2.302;2024-03-08T03:42:06;42.42;;;30.23;;
59846;SDS011;45728;48.788;2.302;2024-03-08T03:44:32;44.70;;;30.75;;
59846;SDS011;45728;48.788;2.302;2024-03-08T03:46:58;43.03;;;31.33;;
59846;SDS011;45728;48.788;2.302;2024-03-08T03:49:24;43.53;;;31.35;;
59846;SDS011;45728;48.788;2.302;2024-03-08T03:51:50;46.47;;;32.90;;
59846;SDS011;45728;48.788;2.302;2024-03-08T03:54:16;44.17;;;32.05;;
59846;SDS011;45728;48.788;2.302;2024-03-08T03:56:42;43.72;;;31.80;;
59846;SDS011;45728;48.788;2.302;2024-03-08T03:59:08;43.85;;;30.80;;
59846;SDS011;45728;48.788;2.302;2024-03-08T04:01:34;46.95;;;32.10;;
59846;SDS011;45728;48.788;2.302;2024-03-08T04:04:00;43.05;;;31.70;;
59846;SDS011;45728;48.788;2.302;2024-03-08T04:06:26;47.92;;;32.70;;
59846;SDS011;45728;48.788;2.302;2024-03-08T04:08:52;44.35;;;32.13;;
59846;SDS011;45728;48.788;2.302;2024-03-08T04:11:18;45.42;;;31.90;;
59846;SDS011;45728;48.788;2.302;2024-03-08T04:13:44;45.05;;;32.30;;
59846;SDS011;45728;48.788;2.302;2024-03-08T04:16:11;46.03;;;32.83;;
59846;SDS011;45728;48.788;2.302;2024-03-08T04:18:37;42.45;;;16.33;;
59846;SDS011;45728;48.788;2.302;2024-03-08T04:21:06;44.08;;;32.22;;
59846;SDS011;45728;48.788;2.302;2024-03-08T04:23:33;47.17;;;32.58;;
59846;SDS011;45728;48.788;2.302;2024-03-08T04:26:04;39.75;;;16.42;;
59846;SDS011;45728;48.788;2.302;2024-03-08T04:28:31;53.92;;;34.35;;
59846;SDS011;45728;48.788;2.302;2024-03-08T04:30:58;47.92;;;34.53;;
59846;SDS011;45728;48.788;2.302;2024-03-08T04:33:26;47.78;;;33.95;;
59846;SDS011;45728;48.788;2.302;2024-03-08T04:35:53;45.67;;;32.25;;
59846;SDS011;45728;48.788;2.302;2024-03-08T04:38:19;51.40;;;35.47;;
59846;SDS011;45728;48.788;2.302;2024-03-08T04:40:45;52.47;;;36.13;;
59846;SDS011;45728;48.788;2.302;2024-03-08T04:43:11;49.45;;;34.30;;
59846;SDS011;45728;48.788;2.302;2024-03-08T04:45:38;50.40;;;34.95;;
59846;SDS011;45728;48.788;2.302;2024-03-08T04:48:04;52.47;;;36.63;;
59846;SDS011;45728;48.788;2.302;2024-03-08T04:50:31;49.75;;;35.17;;
59846;SDS011;45728;48.788;2.302;2024-03-08T04:52:57;46.05;;;32.63;;
59846;SDS011;45728;48.788;2.302;2024-03-08T04:55:23;47.30;;;33.25;;
59846;SDS011;45728;48.788;2.302;2024-03-08T04:57:50;46.97;;;33.63;;
59846;SDS011;45728;48.788;2.302;2024-03-08T05:00:16;48.75;;;35.22;;
59846;SDS011;45728;48.788;2.302;2024-03-08T05:02:42;43.80;;;17.98;;
59846;SDS011;45728;48.788;2.302;2024-03-08T05:05:09;47.70;;;34.22;;
59846;SDS011;45728;48.788;2.302;2024-03-08T05:07:41;47.40;;;33.20;;
59846;SDS011;45728;48.788;2.302;2024-03-08T05:10:09;47.45;;;33.67;;
59846;SDS011;45728;48.788;2.302;2024-03-08T05:12:35;48.63;;;33.67;;
59846;SDS011;45728;48.788;2.302;2024-03-08T05:15:01;47.80;;;32.83;;
59846;SDS011;45728;48.788;2.302;2024-03-08T05:17:27;47.20;;;33.40;;
59846;SDS011;45728;48.788;2.302;2024-03-08T05:19:53;46.72;;;32.42;;
59846;SDS011;45728;48.788;2.302;2024-03-08T05:22:19;43.78;;;31.63;;
59846;SDS011;45728;48.788;2.302;2024-03-08T05:24:45;48.40;;;32.95;;
59846;SDS011;45728;48.788;2.302;2024-03-08T05:27:11;42.78;;;14.98;;
59846;SDS011;45728;48.788;2.302;2024-03-08T05:29:38;43.72;;;31.40;;
59846;SDS011;45728;48.788;2.302;2024-03-08T05:32:04;46.13;;;31.55;;
59846;SDS011;45728;48.788;2.302;2024-03-08T05:34:30;33.88;;;15.35;;
59846;SDS011;45728;48.788;2.302;2024-03-08T05:36:57;41.15;;;16.55;;
59846;SDS011;45728;48.788;2.302;2024-03-08T05:39:24;45.42;;;30.85;;
59846;SDS011;45728;48.788;2.302;2024-03-08T05:41:50;45.35;;;31.20;;
59846;SDS011;45728;48.788;2.302;2024-03-08T05:44:16;45.38;;;31.02;;
59846;SDS011;45728;48.788;2.302;2024-03-08T05:46:42;43.55;;;30.10;;
59846;SDS011;45728;48.788;2.302;2024-03-08T05:49:08;36.15;;;15.73;;
59846;SDS011;45728;48.788;2.302;2024-03-08T05:51:36;45.10;;;30.00;;
59846;SDS011;45728;48.788;2.302;2024-03-08T05:54:03;44.60;;;30.60;;
59846;SDS011;45728;48.788;2.302;2024-03-08T05:56:35;46.78;;;32.35;;
59846;SDS011;45728;48.788;2.302;2024-03-08T05:59:03;43.25;;;29.23;;
59846;SDS011;45728;48.788;2.302;2024-03-08T06:01:29;42.47;;;30.33;;
59846;SDS011;45728;48.788;2.302;2024-03-08T06:04:02;41.35;;;29.38;;
59846;SDS011;45728;48.788;2.302;2024-03-08T06:06:29;44.67;;;29.98;;
59846;SDS011;45728;48.788;2.302;2024-03-08T06:08:55;45.75;;;30.90;;
59846;SDS011;45728;48.788;2.302;2024-03-08T06:11:25;38.92;;;15.95;;
59846;SDS011;45728;48.788;2.302;2024-03-08T06:13:53;47.58;;;32.25;;
59846;SDS011;45728;48.788;2.302;2024-03-08T06:16:25;41.65;;;15.75;;
59846;SDS011;45728;48.788;2.302;2024-03-08T06:18:55;40.05;;;29.15;;
59846;SDS011;45728;48.788;2.302;2024-03-08T06:21:27;44.90;;;31.10;;
59846;SDS011;45728;48.788;2.302;2024-03-08T06:23:53;48.25;;;32.30;;
59846;SDS011;45728;48.788;2.302;2024-03-08T06:26:23;41.55;;;15.70;;
59846;SDS011;45728;48.788;2.302;2024-03-08T06:28:50;46.20;;;31.17;;
59846;SDS011;45728;48.788;2.302;2024-03-08T06:31:16;45.15;;;32.30;;
59846;SDS011;45728;48.788;2.302;2024-03-08T06:33:42;41.90;;;15.50;;
59846;SDS011;45728;48.788;2.302;2024-03-08T06:36:09;44.92;;;29.65;;
59846;SDS011;45728;48.788;2.302;2024-03-08T06:38:37;45.38;;;30.70;;
59846;SDS011;45728;48.788;2.302;2024-03-08T06:41:11;41.08;;;29.23;;
59846;SDS011;45728;48.788;2.302;2024-03-08T06:43:46;44.55;;;30.63;;
59846;SDS011;45728;48.788;2.302;2024-03-08T06:46:16;42.78;;;29.88;;
59846;SDS011;45728;48.788;2.302;2024-03-08T06:48:43;42.63;;;16.33;;
59846;SDS011;45728;48.788;2.302;2024-03-08T06:51:11;45.88;;;31.33;;
59846;SDS011;45728;48.788;2.302;2024-03-08T06:53:37;36.83;;;13.93;;
59846;SDS011;45728;48.788;2.302;2024-03-08T06:56:04;39.90;;;15.07;;
59846;SDS011;45728;48.788;2.302;2024-03-08T06:58:30;41.95;;;29.20;;
59846;SDS011;45728;48.788;2.302;2024-03-08T07:00:56;44.47;;;30.42;;
59846;SDS011;45728;48.788;2.302;2024-03-08T07:03:25;42.80;;;16.20;;
59846;SDS011;45728;48.788;2.302;2024-03-08T07:05:52;46.38;;;29.92;;
59846;SDS011;45728;48.788;2.302;2024-03-08T07:08:18;44.65;;;30.45;;
59846;SDS011;45728;48.788;2.302;2024-03-08T07:10:44;32.55;;;14.93;;
59846;SDS011;45728;48.788;2.302;2024-03-08T07:13:10;43.05;;;29.33;;
59846;SDS011;45728;48.788;2.302;2024-03-08T07:15:37;45.28;;;30.80;;
59846;SDS011;45728;48.788;2.302;2024-03-08T07:18:03;46.60;;;30.52;;
59846;SDS011;45728;48.788;2.302;2024-03-08T07:20:29;42.67;;;29.23;;
59846;SDS011;45728;48.788;2.302;2024-03-08T07:22:55;51.65;;;32.83;;
59846;SDS011;45728;48.788;2.302;2024-03-08T07:25:21;47.15;;;31.52;;
59846;SDS011;45728;48.788;2.302;2024-03-08T07:27:48;44.38;;;31.02;;
59846;SDS011;45728;48.788;2.302;2024-03-08T07:30:15;46.92;;;30.45;;
59846;SDS011;45728;48.788;2.302;2024-03-08T07:33:19;42.88;;;30.20;;
59846;SDS011;45728;48.788;2.302;2024-03-08T07:35:48;45.40;;;29.75;;
59846;SDS011;45728;48.788;2.302;2024-03-08T07:38:15;49.13;;;30.85;;
59846;SDS011;45728;48.788;2.302;2024-03-08T07:40:42;42.95;;;29.30;;
59846;SDS011;45728;48.788;2.302;2024-03-08T07:43:12;43.47;;;28.73;;
59846;SDS011;45728;48.788;2.302;2024-03-08T07:45:38;41.58;;;28.13;;
59846;SDS011;45728;48.788;2.302;2024-03-08T07:48:05;46.72;;;31.02;;
59846;SDS011;45728;48.788;2.302;2024-03-08T07:50:38;45.35;;;31.52;;
59846;SDS011;45728;48.788;2.302;2024-03-08T07:53:05;43.45;;;30.02;;
59846;SDS011;45728;48.788;2.302;2024-03-08T07:55:35;47.55;;;30.45;;
59846;SDS011;45728;48.788;2.302;2024-03-08T07:58:02;41.58;;;28.63;;
59846;SDS011;45728;48.788;2.302;2024-03-08T08:00:28;41.33;;;28.42;;
59846;SDS011;45728;48.788;2.302;2024-03-08T08:02:57;43.42;;;29.27;;
59846;SDS011;45728;48.788;2.302;2024-03-08T08:05:23;41.92;;;29.05;;
59846;SDS011;45728;48.788;2.302;2024-03-08T08:07:49;41.20;;;27.92;;
59846;SDS011;45728;48.788;2.302;2024-03-08T08:10:16;43.30;;;28.17;;
59846;SDS011;45728;48.788;2.302;2024-03-08T08:12:47;40.25;;;28.25;;
59846;SDS011;45728;48.788;2.302;2024-03-08T08:15:14;40.08;;;27.45;;
59846;SDS011;45728;48.788;2.302;2024-03-08T08:17:41;34.00;;;13.20;;
59846;SDS011;45728;48.788;2.302;2024-03-08T08:20:08;41.20;;;27.40;;
59846;SDS011;45728;48.788;2.302;2024-03-08T08:22:39;39.17;;;27.85;;
59846;SDS011;45728;48.788;2.302;2024-03-08T08:25:09;39.10;;;27.35;;
59846;SDS011;45728;48.788;2.302;2024-03-08T08:27:38;44.42;;;28.33;;
59846;SDS011;45728;48.788;2.302;2024-03-08T08:30:05;42.70;;;30.02;;
59846;SDS011;45728;48.788;2.302;2024-03-08T08:32:34;38.47;;;26.52;;
59846;SDS011;45728;48.788;2.302;2024-03-08T08:35:02;42.22;;;28.58;;
59846;SDS011;45728;48.788;2.302;2024-03-08T08:37:35;47.05;;;29.98;;
59846;SDS011;45728;48.788;2.302;2024-03-08T08:40:03;41.55;;;27.42;;
59846;SDS011;45728;48.788;2.302;2024-03-08T08:42:35;36.00;;;26.33;;
59846;SDS011;45728;48.788;2.302;2024-03-08T08:45:03;37.53;;;25.35;;
59846;SDS011;45728;48.788;2.302;2024-03-08T08:47:34;36.85;;;24.83;;
59846;SDS011;45728;48.788;2.302;2024-03-08T08:50:03;37.20;;;24.58;;
59846;SDS011;45728;48.788;2.302;2024-03-08T08:52:31;35.50;;;24.27;;
59846;SDS011;45728;48.788;2.302;2024-03-08T08:54:57;32.40;;;24.05;;
59846;SDS011;45728;48.788;2.302;2024-03-08T08:57:23;31.13;;;22.10;;
59846;SDS011;45728;48.788;2.302;2024-03-08T08:59:50;30.67;;;21.55;;
59846;SDS011;45728;48.788;2.302;2024-03-08T09:02:16;31.23;;;21.80;;
59846;SDS011;45728;48.788;2.302;2024-03-08T09:04:42;37.58;;;22.02;;
59846;SDS011;45728;48.788;2.302;2024-03-08T09:07:11;31.65;;;23.52;;
59846;SDS011;45728;48.788;2.302;2024-03-08T09:09:39;29.38;;;19.98;;
59846;SDS011;45728;48.788;2.302;2024-03-08T09:12:05;48.35;;;33.65;;
59846;SDS011;45728;48.788;2.302;2024-03-08T09:14:31;27.48;;;20.58;;
59846;SDS011;45728;48.788;2.302;2024-03-08T09:16:58;32.38;;;20.95;;
59846;SDS011;45728;48.788;2.302;2024-03-08T09:19:24;28.58;;;19.08;;
59846;SDS011;45728;48.788;2.302;2024-03-08T09:21:51;25.23;;;17.63;;
59846;SDS011;45728;48.788;2.302;2024-03-08T09:24:17;27.65;;;17.50;;
59846;SDS011;45728;48.788;2.302;2024-03-08T09:26:43;30.65;;;19.42;;
59846;SDS011;45728;48.788;2.302;2024-03-08T09:29:09;31.02;;;19.83;;
59846;SDS011;45728;48.788;2.302;2024-03-08T09:31:37;27.58;;;19.65;;
59846;SDS011;45728;48.788;2.302;2024-03-08T09:34:06;25.25;;;18.35;;
59846;SDS011;45728;48.788;2.302;2024-03-08T09:36:34;24.02;;;18.30;;
59846;SDS011;45728;48.788;2.302;2024-03-08T09:39:00;27.23;;;18.55;;
59846;SDS011;45728;48.788;2.302;2024-03-08T09:41:26;26.20;;;17.52;;
59846;SDS011;45728;48.788;2.302;2024-03-08T09:43:52;25.83;;;18.10;;
59846;SDS011;45728;48.788;2.302;2024-03-08T09:46:19;25.92;;;17.35;;
59846;SDS011;45728;48.788;2.302;2024-03-08T09:48:48;25.90;;;17.40;;
59846;SDS011;45728;48.788;2.302;2024-03-08T09:51:14;24.05;;;17.23;;
59846;SDS011;45728;48.788;2.302;2024-03-08T09:53:41;22.60;;;16.05;;
59846;SDS011;45728;48.788;2.302;2024-03-08T09:56:10;21.83;;;16.55;;
59846;SDS011;45728;48.788;2.302;2024-03-08T09:58:37;22.02;;;15.40;;
59846;SDS011;45728;48.788;2.302;2024-03-08T10:01:19;20.65;;;15.63;;
59846;SDS011;45728;48.788;2.302;2024-03-08T10:03:46;20.35;;;15.07;;
59846;SDS011;45728;48.788;2.302;2024-03-08T10:06:13;23.25;;;15.50;;
59846;SDS011;45728;48.788;2.302;2024-03-08T10:08:39;20.95;;;14.95;;
59846;SDS011;45728;48.788;2.302;2024-03-08T10:11:06;19.33;;;14.88;;
59846;SDS011;45728;48.788;2.302;2024-03-08T10:13:33;21.65;;;15.60;;
59846;SDS011;45728;48.788;2.302;2024-03-08T10:15:59;22.95;;;16.45;;
59846;SDS011;45728;48.788;2.302;2024-03-08T10:18:26;22.20;;;15.57;;
59846;SDS011;45728;48.788;2.302;2024-03-08T10:21:05;20.52;;;16.10;;
59846;SDS011;45728;48.788;2.302;2024-03-08T10:23:34;24.65;;;15.75;;
59846;SDS011;45728;48.788;2.302;2024-03-08T10:26:13;18.77;;;14.57;;
59846;SDS011;45728;48.788;2.302;2024-03-08T10:31:07;20.88;;;14.65;;
59846;SDS011;45728;48.788;2.302;2024-03-08T10:33:33;23.50;;;15.75;;
59846;SDS011;45728;48.788;2.302;2024-03-08T10:35:59;22.90;;;15.02;;
59846;SDS011;45728;48.788;2.302;2024-03-08T10:38:26;19.05;;;14.70;;
59846;SDS011;45728;48.788;2.302;2024-03-08T10:40:53;22.15;;;15.10;;
59846;SDS011;45728;48.788;2.302;2024-03-08T10:43:24;19.67;;;14.75;;
59846;SDS011;45728;48.788;2.302;2024-03-08T10:50:53;19.55;;;14.02;;
59846;SDS011;45728;48.788;2.302;2024-03-08T10:53:20;18.30;;;14.05;;
59846;SDS011;45728;48.788;2.302;2024-03-08T10:55:49;18.13;;;13.93;;
59846;SDS011;45728;48.788;2.302;2024-03-08T10:58:19;18.35;;;12.65;;
59846;SDS011;45728;48.788;2.302;2024-03-08T11:00:47;15.87;;;11.40;;
59846;SDS011;45728;48.788;2.302;2024-03-08T11:06:08;16.52;;;12.27;;
59846;SDS011;45728;48.788;2.302;2024-03-08T11:08:40;18.75;;;14.25;;
59846;SDS011;45728;48.788;2.302;2024-03-08T11:11:23;18.13;;;12.43;;
59846;SDS011;45728;48.788;2.302;2024-03-08T11:13:55;20.53;;;12.80;;
59846;SDS011;45728;48.788;2.302;2024-03-08T11:21:31;16.42;;;12.60;;
59846;SDS011;45728;48.788;2.302;2024-03-08T11:24:10;16.17;;;11.65;;
59846;SDS011;45728;48.788;2.302;2024-03-08T11:26:38;17.70;;;11.95;;
59846;SDS011;45728;48.788;2.302;2024-03-08T11:29:39;15.73;;;10.05;;
59846;SDS011;45728;48.788;2.302;2024-03-08T11:32:08;17.15;;;12.05;;
59846;SDS011;45728;48.788;2.302;2024-03-08T11:34:45;14.18;;;10.70;;
59846;SDS011;45728;48.788;2.302;2024-03-08T11:37:17;14.43;;;11.52;;
59846;SDS011;45728;48.788;2.302;2024-03-08T11:39:47;16.02;;;10.95;;
59846;SDS011;45728;48.788;2.302;2024-03-08T11:42:15;12.52;;;9.63;;
59846;SDS011;45728;48.788;2.302;2024-03-08T11:44:45;14.93;;;10.48;;
59846;SDS011;45728;48.788;2.302;2024-03-08T11:47:13;14.40;;;10.13;;
59846;SDS011;45728;48.788;2.302;2024-03-08T11:49:40;14.65;;;9.27;;
59846;SDS011;45728;48.788;2.302;2024-03-08T11:52:13;16.77;;;9.75;;
59846;SDS011;45728;48.788;2.302;2024-03-08T11:54:40;13.68;;;9.77;;
59846;SDS011;45728;48.788;2.302;2024-03-08T11:57:07;12.60;;;9.45;;
59846;SDS011;45728;48.788;2.302;2024-03-08T11:59:35;12.00;;;9.05;;
59846;SDS011;45728;48.788;2.302;2024-03-08T12:02:02;11.80;;;9.50;;
59846;SDS011;45728;48.788;2.302;2024-03-08T12:04:30;11.27;;;8.93;;
59846;SDS011;45728;48.788;2.302;2024-03-08T12:06:59;13.32;;;9.43;;
59846;SDS011;45728;48.788;2.302;2024-03-08T12:09:36;12.10;;;9.35;;
59846;SDS011;45728;48.788;2.302;2024-03-08T12:12:03;12.40;;;9.48;;
59846;SDS011;45728;48.788;2.302;2024-03-08T12:16:59;11.90;;;8.43;;
59846;SDS011;45728;48.788;2.302;2024-03-08T12:19:28;11.45;;;8.77;;
59846;SDS011;45728;48.788;2.302;2024-03-08T12:21:54;11.10;;;8.38;;
59846;SDS011;45728;48.788;2.302;2024-03-08T12:24:21;10.90;;;8.35;;
59846;SDS011;45728;48.788;2.302;2024-03-08T12:26:48;11.88;;;8.25;;
59846;SDS011;45728;48.788;2.302;2024-03-08T12:29:15;12.70;;;8.75;;
59846;SDS011;45728;48.788;2.302;2024-03-08T12:31:53;14.20;;;8.82;;
59846;SDS011;45728;48.788;2.302;2024-03-08T12:34:20;10.20;;;6.85;;
59846;SDS011;45728;48.788;2.302;2024-03-08T12:36:47;11.00;;;8.13;;
59846;SDS011;45728;48.788;2.302;2024-03-08T12:39:16;10.67;;;8.00;;
59846;SDS011;45728;48.788;2.302;2024-03-08T12:41:43;12.45;;;8.52;;
59846;SDS011;45728;48.788;2.302;2024-03-08T12:44:09;11.20;;;8.18;;
59846;SDS011;45728;48.788;2.302;2024-03-08T12:46:37;10.73;;;7.93;;
59846;SDS011;45728;48.788;2.302;2024-03-08T12:49:08;10.02;;;7.07;;
59846;SDS011;45728;48.788;2.302;2024-03-08T12:51:35;10.60;;;8.20;;
59846;SDS011;45728;48.788;2.302;2024-03-08T12:54:05;10.88;;;8.25;;
59846;SDS011;45728;48.788;2.302;2024-03-08T12:59:00;9.77;;;7.53;;
59846;SDS011;45728;48.788;2.302;2024-03-08T13:01:27;10.52;;;7.55;;
59846;SDS011;45728;48.788;2.302;2024-03-08T13:03:53;12.90;;;8.05;;
59846;SDS011;45728;48.788;2.302;2024-03-08T13:06:20;10.50;;;7.00;;
59846;SDS011;45728;48.788;2.302;2024-03-08T13:08:50;12.15;;;7.68;;
59846;SDS011;45728;48.788;2.302;2024-03-08T13:11:17;10.75;;;7.18;;
59846;SDS011;45728;48.788;2.302;2024-03-08T13:13:44;9.98;;;6.55;;
59846;SDS011;45728;48.788;2.302;2024-03-08T13:16:12;8.05;;;6.47;;
59846;SDS011;45728;48.788;2.302;2024-03-08T13:18:40;10.23;;;6.20;;
59846;SDS011;45728;48.788;2.302;2024-03-08T13:21:12;7.97;;;6.45;;
59846;SDS011;45728;48.788;2.302;2024-03-08T13:23:41;8.60;;;6.35;;
59846;SDS011;45728;48.788;2.302;2024-03-08T13:26:11;8.48;;;6.05;;
59846;SDS011;45728;48.788;2.302;2024-03-08T13:28:47;7.45;;;6.07;;
59846;SDS011;45728;48.788;2.302;2024-03-08T13:31:17;9.75;;;6.15;;
59846;SDS011;45728;48.788;2.302;2024-03-08T13:33:44;10.68;;;6.15;;
59846;SDS011;45728;48.788;2.302;2024-03-08T13:36:12;6.57;;;5.35;;
59846;SDS011;45728;48.788;2.302;2024-03-08T13:38:42;7.80;;;5.72;;
59846;SDS011;45728;48.788;2.302;2024-03-08T13:41:13;8.43;;;5.05;;
59846;SDS011;45728;48.788;2.302;2024-03-08T13:43:42;7.82;;;4.88;;
59846;SDS011;45728;48.788;2.302;2024-03-08T13:46:10;7.63;;;5.10;;
59846;SDS011;45728;48.788;2.302;2024-03-08T13:48:37;8.43;;;5.22;;
59846;SDS011;45728;48.788;2.302;2024-03-08T13:51:04;6.70;;;4.45;;
59846;SDS011;45728;48.788;2.302;2024-03-08T13:53:35;5.38;;;4.30;;
59846;SDS011;45728;48.788;2.302;2024-03-08T13:56:02;6.07;;;3.90;;
59846;SDS011;45728;48.788;2.302;2024-03-08T13:58:29;7.30;;;3.92;;
59846;SDS011;45728;48.788;2.302;2024-03-08T14:00:55;5.10;;;3.60;;
59846;SDS011;45728;48.788;2.302;2024-03-08T14:03:21;6.85;;;3.67;;
59846;SDS011;45728;48.788;2.302;2024-03-08T14:05:49;4.78;;;3.15;;
59846;SDS011;45728;48.788;2.302;2024-03-08T14:08:15;8.98;;;3.38;;
59846;SDS011;45728;48.788;2.302;2024-03-08T14:10:43;6.68;;;3.78;;
59846;SDS011;45728;48.788;2.302;2024-03-08T14:15:40;4.63;;;3.20;;
59846;SDS011;45728;48.788;2.302;2024-03-08T14:18:08;6.85;;;3.30;;
59846;SDS011;45728;48.788;2.302;2024-03-08T14:20:34;5.55;;;3.05;;
59846;SDS011;45728;48.788;2.302;2024-03-08T14:23:00;4.90;;;3.13;;
59846;SDS011;45728;48.788;2.302;2024-03-08T14:25:26;4.18;;;2.97;;
59846;SDS011;45728;48.788;2.302;2024-03-08T14:27:55;5.57;;;2.88;;
59846;SDS011;45728;48.788;2.302;2024-03-08T14:30:27;6.72;;;2.78;;
59846;SDS011;45728;48.788;2.302;2024-03-08T14:33:19;5.03;;;2.83;;
59846;SDS011;45728;48.788;2.302;2024-03-08T14:35:45;4.13;;;2.35;;
59846;SDS011;45728;48.788;2.302;2024-03-08T14:38:12;4.05;;;2.53;;
59846;SDS011;45728;48.788;2.302;2024-03-08T14:40:39;4.70;;;3.20;;
59846;SDS011;45728;48.788;2.302;2024-03-08T14:43:06;6.57;;;3.47;;
59846;SDS011;45728;48.788;2.302;2024-03-08T14:45:32;5.75;;;2.22;;
59846;SDS011;45728;48.788;2.302;2024-03-08T14:47:58;4.35;;;2.80;;
59846;SDS011;45728;48.788;2.302;2024-03-08T14:50:25;5.72;;;2.75;;
59846;SDS011;45728;48.788;2.302;2024-03-08T14:52:51;4.57;;;2.50;;
59846;SDS011;45728;48.788;2.302;2024-03-08T14:55:18;5.43;;;2.88;;
59846;SDS011;45728;48.788;2.302;2024-03-08T15:00:16;6.33;;;2.87;;
59846;SDS011;45728;48.788;2.302;2024-03-08T15:02:55;3.60;;;2.78;;